createdAt,value
2023-03-11T00:00:39.613Z,6.18
2023-03-11T00:06:01.786Z,4.40
2023-03-11T00:11:04.663Z,7.00
2023-03-11T00:16:07.555Z,9.29
2023-03-11T00:21:16.680Z,7.16
2023-03-11T00:26:19.798Z,4.72
2023-03-11T00:31:23.022Z,5.42
2023-03-11T00:36:25.712Z,8.67
2023-03-11T00:41:28.764Z,9.00
2023-03-11T00:46:31.682Z,6.07
2023-03-11T00:51:34.865Z,5.96
2023-03-11T00:56:38.637Z,9.18
2023-03-11T01:01:41.402Z,7.75
2023-03-11T01:06:45.610Z,5.47
2023-03-11T01:11:48.909Z,7.61
2023-03-11T01:16:51.630Z,8.66
2023-03-11T01:21:54.386Z,5.93
2023-03-11T01:26:57.069Z,7.81
2023-03-11T01:32:00.015Z,8.57
2023-03-11T01:37:04.032Z,5.79
2023-03-11T01:42:07.087Z,6.03
2023-03-11T01:47:09.846Z,9.22
2023-03-11T01:52:12.556Z,7.60
2023-03-11T01:57:15.753Z,5.97
2023-03-11T02:02:42.090Z,8.61
2023-03-11T02:07:45.264Z,7.21
2023-03-11T02:12:50.461Z,5.28
2023-03-11T02:17:56.428Z,8.42
2023-03-11T02:23:01.201Z,8.33
2023-03-11T02:28:07.143Z,5.62
2023-03-11T02:33:11.508Z,7.36
2023-03-11T02:38:14.534Z,8.54
2023-03-11T02:43:23.574Z,5.85
2023-03-11T02:48:26.472Z,6.02
2023-03-11T02:53:33.503Z,9.09
2023-03-11T02:58:36.184Z,6.96
2023-03-11T03:03:38.898Z,6.59
2023-03-11T03:08:41.871Z,9.01
2023-03-11T03:13:44.555Z,6.70
2023-03-11T03:18:47.255Z,8.33
2023-03-11T03:23:49.969Z,6.90
2023-03-11T03:28:52.724Z,5.94
2023-03-11T03:33:55.469Z,8.42
2023-03-11T03:38:59.563Z,5.84
2023-03-11T03:44:02.385Z,6.07
2023-03-11T03:49:05.406Z,8.36
2023-03-11T03:54:08.202Z,5.98
2023-03-11T03:59:10.884Z,8.08
2023-03-11T04:04:13.569Z,6.99
2023-03-11T04:09:16.479Z,5.71
2023-03-11T04:14:19.248Z,8.37
2023-03-11T04:19:21.939Z,6.12
2023-03-11T04:24:24.719Z,7.48
2023-03-11T04:29:27.452Z,8.13
2023-03-11T04:34:30.144Z,5.59
2023-03-11T04:39:33.112Z,8.16
2023-03-11T04:44:36.446Z,7.69
2023-03-11T04:49:39.226Z,5.57
2023-03-11T04:54:41.906Z,8.22
2023-03-11T04:59:44.602Z,6.16
2023-03-11T05:04:47.478Z,7.22
2023-03-11T05:09:50.192Z,8.18
2023-03-11T05:14:52.938Z,5.40
2023-03-11T05:19:55.700Z,7.42
2023-03-11T05:24:58.391Z,7.64
2023-03-11T05:30:01.116Z,5.51
2023-03-11T05:35:04.356Z,7.93
2023-03-11T05:40:08.318Z,6.40
2023-03-11T05:45:11.188Z,6.66
2023-03-11T05:50:13.948Z,7.41
2023-03-11T05:55:16.773Z,4.74
2023-03-11T06:00:20.600Z,7.08
2023-03-11T06:05:23.297Z,6.55
2023-03-11T06:10:26.022Z,6.73
2023-03-11T06:15:28.988Z,6.69
2023-03-11T06:20:31.715Z,5.97
2023-03-11T06:25:34.398Z,7.36
2023-03-11T06:30:37.127Z,5.64
2023-03-11T06:35:39.840Z,6.08
2023-03-11T06:40:42.547Z,6.07
2023-03-11T06:45:45.834Z,5.70
2023-03-11T06:50:58.842Z,5.67
2023-03-11T06:56:07.980Z,6.31
2023-03-11T07:01:16.524Z,5.09
2023-03-11T07:06:22.621Z,7.47
2023-03-11T07:11:27.549Z,4.70
2023-03-11T07:16:31.252Z,6.56
2023-03-11T07:21:34.278Z,4.70
2023-03-11T07:26:37.596Z,6.42
2023-03-11T07:31:41.454Z,5.39
2023-03-11T07:36:44.330Z,5.20
2023-03-11T07:41:47.738Z,5.74
2023-03-11T07:46:50.538Z,5.49
2023-03-11T07:51:53.208Z,7.10
2023-03-11T07:56:55.926Z,4.93
2023-03-11T08:01:58.822Z,6.80
2023-03-11T08:07:01.585Z,4.89
2023-03-11T08:12:04.842Z,7.01
2023-03-11T08:17:07.547Z,5.48
2023-03-11T08:22:10.347Z,6.78
2023-03-11T08:27:13.562Z,5.58
2023-03-11T08:32:16.374Z,5.42
2023-03-11T08:37:19.162Z,6.62
2023-03-11T08:42:21.860Z,5.43
2023-03-11T08:47:24.877Z,7.05
2023-03-11T08:52:27.669Z,5.03
2023-03-11T08:57:31.276Z,6.95
2023-03-11T09:02:34.134Z,5.00
2023-03-11T09:07:37.501Z,7.16
2023-03-11T09:12:40.143Z,4.99
2023-03-11T09:17:42.824Z,6.79
2023-03-11T09:22:45.682Z,6.07
2023-03-11T09:27:48.396Z,5.79
2023-03-11T09:32:51.296Z,5.55
2023-03-11T09:37:54.090Z,5.54
2023-03-11T09:43:14.908Z,5.85
2023-03-11T09:48:35.305Z,5.04
2023-03-11T09:53:37.943Z,6.69
2023-03-11T09:58:48.231Z,4.93
2023-03-11T10:03:54.701Z,5.78
2023-03-11T10:09:13.061Z,5.23
2023-03-11T10:14:24.765Z,5.57
2023-03-11T10:19:44.643Z,5.46
2023-03-11T10:24:54.585Z,4.99
2023-03-11T10:30:07.123Z,5.91
2023-03-11T10:35:22.450Z,5.34
2023-03-11T10:40:31.825Z,5.72
2023-03-11T10:45:41.603Z,5.06
2023-03-11T10:51:14.682Z,5.28
2023-03-11T10:56:31.951Z,6.18
2023-03-11T11:01:34.708Z,3.85
2023-03-11T11:06:37.761Z,6.39
2023-03-11T11:11:40.864Z,4.70
2023-03-11T11:16:43.684Z,5.77
2023-03-11T11:21:50.888Z,4.34
2023-03-11T11:27:26.614Z,5.66
2023-03-11T11:32:29.705Z,4.37
2023-03-11T11:37:36.115Z,5.88
2023-03-11T11:42:43.539Z,4.48
2023-03-11T11:47:49.818Z,5.95
2023-03-11T11:53:36.885Z,3.98
2023-03-11T11:58:41.206Z,6.51
2023-03-11T12:03:55.902Z,4.21
2023-03-11T12:09:13.556Z,5.54
2023-03-11T12:14:32.204Z,4.19
2023-03-11T12:19:44.279Z,5.87
2023-03-11T12:25:22.344Z,4.03
2023-03-11T12:30:41.212Z,5.74
2023-03-11T12:35:51.083Z,3.99
2023-03-11T12:41:01.815Z,4.90
2023-03-11T12:46:11.791Z,3.99
2023-03-11T12:51:26.751Z,4.63
2023-03-11T12:57:01.393Z,5.05
2023-03-11T13:02:48.566Z,3.13
2023-03-11T13:08:10.274Z,5.41
2023-03-11T13:13:35.322Z,3.66
2023-03-11T13:18:39.085Z,4.74
2023-03-11T13:23:41.878Z,4.80
2023-03-11T13:29:10.421Z,3.33
2023-03-11T13:34:40.610Z,5.30
2023-03-11T13:40:00.490Z,5.28
2023-03-11T13:45:06.568Z,3.35
2023-03-11T13:50:17.046Z,4.27
2023-03-11T13:55:23.297Z,4.89
2023-03-11T14:00:29.293Z,3.31
2023-03-11T14:05:38.088Z,5.05
2023-03-11T14:10:40.992Z,5.99
2023-03-11T14:15:57.191Z,4.04
2023-03-11T14:21:01.247Z,3.08
2023-03-11T14:26:07.941Z,4.88
2023-03-11T14:31:23.002Z,3.14
2023-03-11T14:36:25.746Z,4.69
2023-03-11T14:41:28.960Z,4.82
2023-03-11T14:46:31.662Z,3.06
2023-03-11T14:51:35.965Z,4.77
2023-03-11T14:56:44.569Z,3.55
2023-03-11T15:01:48.228Z,5.34
2023-03-11T15:06:51.357Z,4.47
2023-03-11T15:11:55.534Z,4.51
2023-03-11T15:17:41.353Z,4.76
2023-03-11T15:22:42.264Z,4.53
2023-03-11T15:27:45.854Z,5.78
2023-03-11T15:32:49.059Z,3.77
2023-03-11T15:38:11.463Z,4.77
2023-03-11T15:43:17.006Z,3.42
2023-03-11T15:48:21.220Z,5.28
2023-03-11T15:53:25.768Z,3.50
2023-03-11T15:58:30.726Z,4.58
2023-03-11T16:03:33.590Z,3.29
2023-03-11T16:08:36.400Z,4.66
2023-03-11T16:13:39.382Z,3.16
2023-03-11T16:18:42.082Z,4.64
2023-03-11T16:23:51.952Z,3.57
2023-03-11T16:28:55.179Z,3.84
2023-03-11T16:33:57.840Z,3.61
2023-03-11T16:39:02.690Z,3.64
2023-03-11T16:44:09.588Z,3.95
2023-03-11T16:49:12.676Z,2.64
2023-03-11T16:54:15.365Z,4.73
2023-03-11T16:59:18.056Z,2.41
2023-03-11T17:04:20.775Z,3.67
2023-03-11T17:09:23.998Z,4.71
2023-03-11T17:14:26.886Z,2.31
2023-03-11T17:19:30.995Z,3.57
2023-03-11T17:24:33.812Z,2.69
2023-03-11T17:29:36.731Z,2.45
2023-03-11T17:34:39.472Z,3.74
2023-03-11T17:39:42.655Z,2.25
2023-03-11T17:44:51.670Z,3.91
2023-03-11T17:49:55.007Z,2.60
2023-03-11T17:54:57.913Z,2.42
2023-03-11T18:00:05.755Z,3.07
2023-03-11T18:05:09.476Z,1.39
2023-03-11T18:10:14.509Z,3.26
2023-03-11T18:15:19.970Z,1.74
2023-03-11T18:20:23.060Z,1.51
2023-03-11T18:25:25.797Z,2.35
2023-03-11T18:30:28.528Z,0.73
2023-03-11T18:35:31.302Z,2.50
2023-03-11T18:40:34.055Z,2.73
2023-03-11T18:45:39.119Z,1.07
2023-03-11T18:50:41.845Z,2.42
2023-03-11T18:55:44.611Z,3.73
2023-03-11T19:00:47.438Z,1.39
2023-03-11T19:05:52.492Z,1.61
2023-03-11T19:10:56.073Z,3.55
2023-03-11T19:16:02.124Z,1.46
2023-03-11T19:21:07.201Z,2.10
2023-03-11T19:26:10.332Z,2.94
2023-03-11T19:31:13.522Z,1.02
2023-03-11T19:36:16.156Z,2.69
2023-03-11T19:41:20.012Z,1.70
2023-03-11T19:46:23.983Z,1.62
2023-03-11T19:51:32.789Z,3.18
2023-03-11T19:56:38.647Z,0.93
2023-03-11T20:01:42.415Z,2.28
2023-03-11T20:06:45.606Z,2.20
2023-03-11T20:11:48.404Z,1.57
2023-03-11T20:16:51.116Z,2.41
2023-03-11T20:21:53.899Z,1.78
2023-03-11T20:26:56.850Z,3.12
2023-03-11T20:31:59.669Z,1.29
2023-03-11T20:37:02.593Z,3.43
2023-03-11T20:42:05.801Z,1.62
2023-03-11T20:47:08.639Z,1.88
2023-03-11T20:52:11.592Z,3.01
2023-03-11T20:57:14.372Z,1.17
2023-03-11T21:02:17.250Z,3.51
2023-03-11T21:07:20.360Z,1.83
2023-03-11T21:12:24.074Z,2.58
2023-03-11T21:17:26.925Z,2.38
2023-03-11T21:22:29.809Z,2.09
2023-03-11T21:27:32.854Z,3.04
2023-03-11T21:32:35.995Z,1.42
2023-03-11T21:37:39.057Z,4.22
2023-03-11T21:42:41.970Z,2.96
2023-03-11T21:47:45.227Z,0.68
2023-03-11T21:52:48.041Z,1.57
2023-03-11T21:57:50.877Z,4.41
2023-03-11T22:02:53.830Z,1.90
2023-03-11T22:07:56.793Z,1.59
2023-03-11T22:12:59.689Z,3.37
2023-03-11T22:18:02.562Z,1.08
2023-03-11T22:23:05.268Z,2.03
2023-03-11T22:28:12.196Z,4.76
2023-03-11T22:33:14.985Z,1.79
2023-03-11T22:38:17.771Z,0.04
2023-03-11T22:43:20.490Z,1.23
2023-03-11T22:48:23.265Z,4.22
2023-03-11T22:53:26.050Z,1.99
2023-03-11T22:58:28.863Z,0.10
2023-03-11T23:03:33.229Z,2.39
2023-03-11T23:08:36.565Z,4.93
2023-03-11T23:13:40.914Z,2.21
2023-03-11T23:18:45.006Z,2.57
2023-03-11T23:23:48.250Z,3.98
2023-03-11T23:28:53.959Z,1.75
2023-03-11T23:33:58.102Z,3.96
2023-03-11T23:39:00.873Z,2.67
2023-03-11T23:44:04.980Z,2.67
2023-03-11T23:49:07.783Z,4.26
2023-03-11T23:54:10.670Z,2.08
2023-03-11T23:59:13.403Z,3.85
